| time (UTC) | temp F | wind direction | speed MPH | gust MPH | rain 1hr in | rain 24hr in | rain mn in | humidity % | barometer mb |
| 20260509150531 | 53 | 342 | 4.0 | 7.0 | 0.06 | 0.16 | 0.16 | 91 | 1010.8 |
| 20260509150041 | 53 | 12 | 4.0 | 7.0 | 0.07 | 0.16 | 0.16 | 91 | 1010.9 |
| 20260509145531 | 52 | 334 | 3.0 | 7.0 | 0.09 | 0.16 | 0.16 | 90 | 1011.3 |
| 20260509145031 | 52 | 334 | 4.0 | 6.0 | 0.10 | 0.16 | 0.16 | 90 | 1011.4 |
| 20260509144545 | 52 | 333 | 4.0 | 9.0 | 0.10 | 0.16 | 0.16 | 90 | 1011.4 |
| 20260509144031 | 52 | 330 | 4.0 | 9.0 | 0.10 | 0.15 | 0.15 | 90 | 1011.5 |
| 20260509143530 | 52 | 332 | 4.0 | 6.0 | 0.10 | 0.15 | 0.15 | 90 | 1011.5 |
| 20260509143051 | 52 | 325 | 2.0 | 3.0 | 0.10 | 0.14 | 0.14 | 90 | 1011.6 |
| 20260509142530 | 53 | 110 | 2.0 | 3.0 | 0.10 | 0.13 | 0.13 | 90 | 1011.6 |
| 20260509142032 | 53 | 116 | 1.0 | 2.0 | 0.10 | 0.13 | 0.13 | 90 | 1011.6 |
| 20260509141553 | 53 | 0 | 0.0 | 0.0 | 0.10 | 0.12 | 0.12 | 89 | 1011.6 |
| 20260509141032 | 53 | 0 | 0.0 | 0.0 | 0.08 | 0.10 | 0.10 | 89 | 1011.5 |
| 20260509140530 | 53 | 0 | 0.0 | 0.0 | 0.08 | 0.09 | 0.09 | 89 | 1011.5 |
| 20260509140051 | 53 | 0 | 0.0 | 1.0 | 0.08 | 0.09 | 0.09 | 88 | 1011.5 |
| 20260509135529 | 53 | 0 | 0.0 | 1.0 | 0.06 | 0.07 | 0.07 | 88 | 1011.5 |
| 20260509135034 | 53 | 116 | 1.0 | 1.0 | 0.05 | 0.06 | 0.06 | 87 | 1011.5 |
| 20260509134540 | 54 | 0 | 0.0 | 0.0 | 0.05 | 0.06 | 0.06 | 88 | 1011.3 |
| 20260509134031 | 54 | 0 | 0.0 | 0.0 | 0.04 | 0.05 | 0.05 | 88 | 1011.3 |
| 20260509133532 | 54 | 0 | 0.0 | 3.0 | 0.05 | 0.05 | 0.05 | 88 | 1011.4 |
| 20260509133042 | 54 | 0 | 0.0 | 3.0 | 0.04 | 0.04 | 0.04 | 88 | 1011.3 |
| 20260509132529 | 54 | 116 | 2.0 | 3.0 | 0.03 | 0.03 | 0.03 | 88 | 1011.4 |
| 20260509132030 | 54 | 0 | 0.0 | 0.0 | 0.03 | 0.03 | 0.03 | 87 | 1011.3 |
| 20260509131545 | 54 | 0 | 0.0 | 0.0 | 0.02 | 0.02 | 0.02 | 87 | 1011.3 |
| 20260509131032 | 54 | 0 | 0.0 | 0.0 | 0.02 | 0.02 | 0.02 | 87 | 1011.4 |
| 20260509130529 | 53 | 0 | 0.0 | 0.0 | 0.01 | 0.01 | 0.01 | 87 | 1011.4 |
| 20260509130048 | 53 | 0 | 0.0 | 0.0 | 0.01 | 0.01 | 0.01 | 87 | 1011.2 |
| 20260509125530 | 53 | 0 | 0.0 | 0.0 | 0.01 | 0.01 | 0.01 | 87 | 1011.3 |
| 20260509125030 | 53 | 0 | 0.0 | 0.0 | 0.01 | 0.01 | 0.01 | 87 | 1011.2 |
| 20260509124542 | 53 | 0 | 0.0 | 0.0 | 0.01 | 0.01 | 0.01 | 87 | 1011.2 |
| 20260509124031 | 53 | 0 | 0.0 | 0.0 | 0.01 | 0.01 | 0.01 | 88 | 1011.2 |
| 20260509123531 | 52 | 0 | 0.0 | 0.0 | 0.00 | 0.00 | 0.00 | 88 | 1011.3 |
| 20260509123051 | 52 | 0 | 0.0 | 0.0 | 0.00 | 0.00 | 0.00 | 88 | 1011.3 |
| 20260509122530 | 52 | 0 | 0.0 | 0.0 | 0.00 | 0.00 | 0.00 | 87 | 1011.5 |
| 20260509122032 | 52 | 0 | 0.0 | 0.0 | 0.00 | 0.00 | 0.00 | 87 | 1011.5 |
| 20260509121538 | 52 | 0 | 0.0 | 0.0 | 0.00 | 0.00 | 0.00 | 88 | 1011.5 |
| 20260509121030 | 52 | 0 | 0.0 | 2.0 | 0.00 | 0.00 | 0.00 | 88 | 1011.6 |
| 20260509120531 | 52 | 0 | 0.0 | 2.0 | 0.00 | 0.00 | 0.00 | 88 | 1011.6 |
| 20260509120046 | 51 | 202 | 1.0 | 2.0 | 0.00 | 0.00 | 0.00 | 88 | 1011.8 |
| 20260509115531 | 51 | 202 | 1.0 | 2.0 | 0.00 | 0.00 | 0.00 | 89 | 1011.7 |
| 20260509115032 | 51 | 217 | 1.0 | 2.0 | 0.00 | 0.00 | 0.00 | 88 | 1011.6 |
| 20260509114543 | 51 | 249 | 1.0 | 6.0 | 0.00 | 0.00 | 0.00 | 89 | 1011.5 |
| 20260509114032 | 51 | 162 | 3.0 | 6.0 | 0.00 | 0.00 | 0.00 | 90 | 1011.6 |
| 20260509113529 | 51 | 152 | 3.0 | 5.0 | 0.00 | 0.00 | 0.00 | 89 | 1011.7 |
| 20260509113100 | 50 | 0 | 1.0 | 4.0 | 0.00 | 0.00 | 0.00 | 88 | 1011.4 |
| 20260509112531 | 50 | 319 | 2.0 | 4.0 | 0.00 | 0.00 | 0.00 | 88 | 1011.1 |
| 20260509112032 | 50 | 333 | 3.0 | 4.0 | 0.00 | 0.00 | 0.00 | 89 | 1011.1 |
| 20260509111547 | 51 | 330 | 1.0 | 3.0 | 0.00 | 0.00 | 0.00 | 88 | 1011.2 |
| 20260509111031 | 51 | 349 | 1.0 | 3.0 | 0.00 | 0.00 | 0.00 | 87 | 1011.2 |
| 20260509110529 | 51 | 0 | 0.0 | 0.0 | 0.00 | 0.00 | 0.00 | 87 | 1011.1 |
| 20260509110047 | 51 | 0 | 0.0 | 0.0 | 0.00 | 0.00 | 0.00 | 86 | 1011.1 |
| 20260509105529 | 51 | 0 | 0.0 | 0.0 | 0.00 | 0.00 | 0.00 | 86 | 1011.0 |
| 20260509105030 | 51 | 0 | 0.0 | 1.0 | 0.00 | 0.00 | 0.00 | 85 | 1011.0 |
| 20260509104555 | 51 | 0 | 0.0 | 2.0 | 0.00 | 0.00 | 0.00 | 85 | 1010.9 |
| 20260509104028 | 51 | 129 | 1.0 | 2.0 | 0.00 | 0.00 | 0.00 | 85 | 1010.7 |
| 20260509103528 | 50 | 138 | 1.0 | 2.0 | 0.00 | 0.00 | 0.00 | 85 | 1010.8 |
| 20260509103052 | 50 | 138 | 1.0 | 2.0 | 0.00 | 0.00 | 0.00 | 85 | 1010.8 |
| 20260509102531 | 50 | 138 | 0.0 | 1.0 | 0.00 | 0.00 | 0.00 | 85 | 1010.8 |
| 20260509102032 | 50 | 0 | 0.0 | 0.0 | 0.00 | 0.00 | 0.00 | 86 | 1010.7 |
| 20260509101543 | 50 | 0 | 0.0 | 0.0 | 0.00 | 0.00 | 0.00 | 86 | 1010.7 |
| 20260509101028 | 50 | 0 | 0.0 | 0.0 | 0.00 | 0.00 | 0.00 | 85 | 1010.6 |
| 20260509100528 | 50 | 0 | 0.0 | 0.0 | 0.00 | 0.00 | 0.00 | 85 | 1010.4 |
| 20260509100104 | 50 | 0 | 0.0 | 0.0 | 0.00 | 0.00 | 0.00 | 85 | 1010.4 |
| 20260509095531 | 50 | 0 | 0.0 | 0.0 | 0.00 | 0.00 | 0.00 | 85 | 1010.3 |
| 20260509095030 | 50 | 0 | 0.0 | 0.0 | 0.00 | 0.00 | 0.00 | 84 | 1010.2 |
| 20260509094547 | 50 | 0 | 0.0 | 0.0 | 0.00 | 0.00 | 0.00 | 84 | 1010.3 |
| 20260509094030 | 50 | 0 | 0.0 | 0.0 | 0.00 | 0.00 | 0.00 | 83 | 1010.3 |
| 20260509093532 | 50 | 0 | 0.0 | 0.0 | 0.00 | 0.00 | 0.00 | 83 | 1010.1 |
| 20260509093044 | 50 | 0 | 0.0 | 0.0 | 0.00 | 0.00 | 0.00 | 83 | 1010.0 |
| 20260509092528 | 50 | 0 | 0.0 | 0.0 | 0.00 | 0.00 | 0.00 | 83 | 1010.3 |
| 20260509092031 | 50 | 0 | 0.0 | 0.0 | 0.00 | 0.00 | 0.00 | 82 | 1010.3 |
| 20260509091554 | 51 | 0 | 0.0 | 0.0 | 0.00 | 0.00 | 0.00 | 82 | 1010.2 |
| 20260509091029 | 51 | 0 | 0.0 | 0.0 | 0.00 | 0.00 | 0.00 | 82 | 1010.3 |
| 20260509090529 | 51 | 0 | 0.0 | 0.0 | 0.00 | 0.00 | 0.00 | 81 | 1010.3 |
| 20260509090043 | 51 | 0 | 0.0 | 0.0 | 0.00 | 0.00 | 0.00 | 81 | 1010.2 |
| 20260509085528 | 51 | 0 | 0.0 | 0.0 | 0.00 | 0.00 | 0.00 | 81 | 1010.3 |
| 20260509085031 | 51 | 0 | 0.0 | 0.0 | 0.00 | 0.00 | 0.00 | 80 | 1010.2 |
| 20260509084541 | 51 | 0 | 0.0 | 0.0 | 0.00 | 0.00 | 0.00 | 80 | 1010.2 |
| 20260509084028 | 51 | 0 | 0.0 | 0.0 | 0.00 | 0.00 | 0.00 | 80 | 1010.3 |
| 20260509083531 | 51 | 0 | 0.0 | 0.0 | 0.00 | 0.00 | 0.00 | 79 | 1010.3 |
| 20260509083046 | 51 | 0 | 0.0 | 0.0 | 0.00 | 0.00 | 0.00 | 80 | 1010.3 |
| 20260509082530 | 51 | 0 | 0.0 | 0.0 | 0.00 | 0.00 | 0.00 | 79 | 1010.4 |
| 20260509082029 | 51 | 0 | 0.0 | 1.0 | 0.00 | 0.00 | 0.00 | 79 | 1010.4 |
| 20260509081556 | 51 | 0 | 0.0 | 2.0 | 0.00 | 0.00 | 0.00 | 80 | 1010.4 |
| 20260509081031 | 51 | 138 | 1.0 | 2.0 | 0.00 | 0.00 | 0.00 | 80 | 1010.4 |
| 20260509080534 | 51 | 138 | 1.0 | 2.0 | 0.00 | 0.00 | 0.00 | 81 | 1010.5 |
| 20260509080049 | 51 | 138 | 1.0 | 2.0 | 0.00 | 0.00 | 0.00 | 80 | 1010.5 |
| 20260509075528 | 52 | 138 | 1.0 | 2.0 | 0.00 | 0.00 | 0.00 | 80 | 1010.4 |
| 20260509075028 | 52 | 138 | 1.0 | 2.0 | 0.00 | 0.00 | 0.00 | 79 | 1010.5 |
| 20260509074544 | 52 | 113 | 2.0 | 2.0 | 0.00 | 0.00 | 0.00 | 78 | 1010.4 |
| 20260509074032 | 52 | 96 | 1.0 | 4.0 | 0.00 | 0.00 | 0.00 | 78 | 1010.4 |
| 20260509073531 | 52 | 96 | 2.0 | 4.0 | 0.00 | 0.00 | 0.00 | 78 | 1010.4 |
| 20260509073046 | 51 | 93 | 3.0 | 4.0 | 0.00 | 0.00 | 0.00 | 79 | 1010.3 |
| 20260509072528 | 51 | 0 | 0.0 | 2.0 | 0.00 | 0.00 | 0.00 | 78 | 1010.4 |
| 20260509072030 | 52 | 0 | 0.0 | 2.0 | 0.00 | 0.00 | 0.00 | 78 | 1010.6 |
| 20260509071547 | 52 | 59 | 1.0 | 4.0 | 0.00 | 0.00 | 0.00 | 78 | 1010.5 |
| 20260509071028 | 52 | 58 | 2.0 | 4.0 | 0.00 | 0.00 | 0.00 | 77 | 1010.5 |
| 20260509070531 | 52 | 35 | 1.0 | 3.0 | 0.00 | 0.00 | 0.00 | 77 | 1010.7 |
| 20260509070045 | 52 | 34 | 1.0 | 3.0 | 0.00 | 0.00 | 0.00 | 76 | 1010.7 |
| 20260509065530 | 52 | 0 | 0.0 | 4.0 | 0.00 | 0.00 | 0.00 | 75 | 1010.8 |
| 20260509065030 | 52 | 351 | 1.0 | 6.0 | 0.00 | 0.00 | 0.00 | 75 | 1010.8 |
| 20260509064543 | 52 | 1 | 2.0 | 6.0 | 0.00 | 0.00 | 0.00 | 75 | 1010.9 |
| 20260509064032 | 52 | 37 | 3.0 | 6.0 | 0.00 | 0.00 | 0.00 | 75 | 1010.8 |
| 20260509063530 | 53 | 340 | 3.0 | 6.0 | 0.00 | 0.00 | 0.00 | 75 | 1010.9 |
| 20260509063044 | 53 | 319 | 3.0 | 6.0 | 0.00 | 0.00 | 0.00 | 75 | 1010.9 |
| 20260509062528 | 53 | 348 | 1.0 | 4.0 | 0.00 | 0.00 | 0.00 | 74 | 1010.8 |
| 20260509062028 | 53 | 310 | 1.0 | 4.0 | 0.00 | 0.00 | 0.00 | 74 | 1010.9 |
| 20260509061552 | 53 | 307 | 3.0 | 4.0 | 0.00 | 0.00 | 0.00 | 72 | 1010.9 |
| 20260509061033 | 53 | 73 | 2.0 | 3.0 | 0.00 | 0.00 | 0.00 | 74 | 1010.8 |
| 20260509060528 | 53 | 0 | 0.0 | 2.0 | 0.00 | 0.00 | 0.00 | 76 | 1010.9 |
| 20260509060047 | 53 | 0 | 0.0 | 2.0 | 0.00 | 0.00 | 0.00 | 74 | 1010.9 |
| 20260509055535 | 53 | 0 | 1.0 | 2.0 | 0.00 | 0.00 | 0.00 | 73 | 1010.9 |
| 20260509055030 | 53 | 74 | 0.0 | 0.0 | 0.00 | 0.00 | 0.00 | 73 | 1011.0 |
| 20260509054554 | 53 | 0 | 0.0 | 0.0 | 0.00 | 0.00 | 0.00 | 72 | 1011.0 |
| 20260509054031 | 53 | 0 | 0.0 | 0.0 | 0.00 | 0.00 | 0.00 | 71 | 1011.1 |
| 20260509053531 | 53 | 0 | 0.0 | 1.0 | 0.00 | 0.00 | 0.00 | 71 | 1011.1 |
| 20260509053055 | 53 | 0 | 0.0 | 1.0 | 0.00 | 0.00 | 0.00 | 71 | 1011.1 |
| 20260509052531 | 53 | 74 | 1.0 | 2.0 | 0.00 | 0.00 | 0.00 | 71 | 1011.2 |
| 20260509052028 | 54 | 74 | 1.0 | 2.0 | 0.00 | 0.00 | 0.00 | 72 | 1011.0 |
| 20260509051548 | 54 | 0 | 0.0 | 0.0 | 0.00 | 0.00 | 0.00 | 71 | 1011.1 |
| 20260509051031 | 54 | 0 | 0.0 | 2.0 | 0.00 | 0.00 | 0.00 | 70 | 1011.2 |
| 20260509050529 | 54 | 0 | 0.0 | 2.0 | 0.00 | 0.00 | 0.00 | 69 | 1011.2 |
| 20260509050053 | 55 | 74 | 1.0 | 2.0 | 0.00 | 0.00 | 0.00 | 69 | 1011.2 |
| 20260509045532 | 55 | 74 | 1.0 | 2.0 | 0.00 | 0.00 | 0.00 | 68 | 1011.1 |
| 20260509045028 | 55 | 74 | 1.0 | 2.0 | 0.00 | 0.00 | 0.00 | 64 | 1011.0 |
| 20260509044549 | 54 | 74 | 1.0 | 3.0 | 0.00 | 0.00 | 0.00 | 65 | 1011.0 |
| 20260509044032 | 54 | 74 | 1.0 | 3.0 | 0.00 | 0.00 | 0.00 | 70 | 1011.1 |
| 20260509043531 | 55 | 74 | 2.0 | 3.0 | 0.00 | 0.00 | 0.00 | 68 | 1011.2 |
| 20260509043045 | 55 | 81 | 2.0 | 3.0 | 0.00 | 0.00 | 0.00 | 66 | 1011.2 |
| 20260509042531 | 55 | 81 | 1.0 | 3.0 | 0.00 | 0.00 | 0.00 | 68 | 1011.4 |
| 20260509042031 | 55 | 81 | 1.0 | 2.0 | 0.00 | 0.00 | 0.00 | 67 | 1011.4 |
| 20260509041543 | 55 | 81 | 0.0 | 2.0 | 0.00 | 0.00 | 0.00 | 66 | 1011.4 |
| 20260509041031 | 55 | 0 | 0.0 | 0.0 | 0.00 | 0.00 | 0.00 | 63 | 1011.5 |
| 20260509040532 | 55 | 0 | 0.0 | 0.0 | 0.00 | 0.00 | 0.00 | 64 | 1011.5 |
| 20260509040048 | 55 | 0 | 0.0 | 0.0 | 0.00 | 0.00 | 0.00 | 66 | 1011.6 |
| 20260509035530 | 55 | 0 | 0.0 | 0.0 | 0.00 | 0.00 | 0.00 | 64 | 1011.6 |
| 20260509035031 | 56 | 0 | 0.0 | 0.0 | 0.00 | 0.00 | 0.00 | 65 | 1011.5 |
| 20260509034542 | 56 | 0 | 0.0 | 1.0 | 0.00 | 0.00 | 0.00 | 61 | 1011.7 |
| 20260509034030 | 56 | 0 | 0.0 | 3.0 | 0.00 | 0.00 | 0.00 | 62 | 1011.6 |
| 20260509033531 | 56 | 81 | 1.0 | 3.0 | 0.00 | 0.00 | 0.00 | 64 | 1011.6 |
| 20260509033043 | 57 | 81 | 2.0 | 3.0 | 0.00 | 0.00 | 0.00 | 59 | 1011.5 |
| 20260509032532 | 56 | 99 | 1.0 | 2.0 | 0.00 | 0.00 | 0.00 | 59 | 1011.6 |
| 20260509032031 | 56 | 0 | 0.0 | 2.0 | 0.00 | 0.00 | 0.00 | 61 | 1011.6 |
| 20260509031546 | 57 | 79 | 1.0 | 5.0 | 0.00 | 0.00 | 0.00 | 60 | 1011.8 |
| 20260509031028 | 57 | 0 | 0.0 | 5.0 | 0.00 | 0.00 | 0.00 | 61 | 1011.9 |
| 20260509030531 | 57 | 273 | 1.0 | 9.0 | 0.00 | 0.00 | 0.00 | 59 | 1012.0 |
| 20260509030044 | 57 | 0 | 0.0 | 9.0 | 0.00 | 0.00 | 0.00 | 63 | 1012.1 |
| 20260509025527 | 56 | 314 | 5.0 | 9.0 | 0.00 | 0.00 | 0.00 | 60 | 1012.0 |
| 20260509025028 | 55 | 273 | 1.0 | 5.0 | 0.00 | 0.00 | 0.00 | 67 | 1012.0 |
| 20260509024545 | 55 | 0 | 0.0 | 2.0 | 0.00 | 0.00 | 0.00 | 69 | 1011.8 |
| 20260509024030 | 55 | 13 | 1.0 | 3.0 | 0.00 | 0.00 | 0.00 | 67 | 1011.8 |
| 20260509023530 | 56 | 0 | 1.0 | 3.0 | 0.00 | 0.00 | 0.00 | 68 | 1012.0 |
| 20260509023046 | 56 | 0 | 0.0 | 3.0 | 0.00 | 0.00 | 0.00 | 64 | 1011.9 |
| 20260509022531 | 56 | 117 | 1.0 | 2.0 | 0.00 | 0.00 | 0.00 | 64 | 1011.9 |
| 20260509022030 | 56 | 130 | 1.0 | 2.0 | 0.00 | 0.00 | 0.00 | 63 | 1011.8 |
| 20260509021544 | 56 | 0 | 0.0 | 2.0 | 0.00 | 0.00 | 0.00 | 63 | 1012.0 |
| 20260509021028 | 56 | 131 | 1.0 | 2.0 | 0.00 | 0.00 | 0.00 | 63 | 1012.1 |
| 20260509020533 | 56 | 131 | 1.0 | 2.0 | 0.00 | 0.00 | 0.00 | 64 | 1011.9 |
| 20260509020044 | 56 | 0 | 0.0 | 2.0 | 0.00 | 0.00 | 0.00 | 64 | 1011.9 |
| 20260509015533 | 55 | 0 | 0.0 | 3.0 | 0.00 | 0.00 | 0.00 | 65 | 1012.0 |
| 20260509015029 | 55 | 131 | 2.0 | 4.0 | 0.00 | 0.00 | 0.00 | 66 | 1012.0 |
| 20260509014544 | 55 | 137 | 3.0 | 4.0 | 0.00 | 0.00 | 0.00 | 67 | 1012.0 |
| 20260509014035 | 55 | 143 | 3.0 | 4.0 | 0.00 | 0.00 | 0.00 | 67 | 1012.0 |
| 20260509013530 | 55 | 126 | 3.0 | 4.0 | 0.00 | 0.00 | 0.00 | 66 | 1012.0 |
| 20260509013045 | 56 | 0 | 0.0 | 2.0 | 0.00 | 0.00 | 0.00 | 66 | 1011.9 |
| 20260509012532 | 56 | 0 | 0.0 | 3.0 | 0.00 | 0.00 | 0.00 | 66 | 1011.9 |
| 20260509012030 | 56 | 121 | 2.0 | 4.0 | 0.00 | 0.00 | 0.00 | 65 | 1011.9 |
| 20260509011538 | 56 | 117 | 3.0 | 4.0 | 0.00 | 0.00 | 0.00 | 64 | 1011.8 |
| 20260509011031 | 56 | 87 | 2.0 | 3.0 | 0.00 | 0.00 | 0.00 | 63 | 1011.7 |
| 20260509010530 | 56 | 86 | 2.0 | 3.0 | 0.00 | 0.00 | 0.00 | 63 | 1011.4 |
| 20260509010039 | 56 | 98 | 2.0 | 4.0 | 0.00 | 0.00 | 0.00 | 66 | 1011.5 |
| 20260509005531 | 56 | 113 | 1.0 | 4.0 | 0.00 | 0.00 | 0.00 | 60 | 1011.4 |
| 20260509005030 | 57 | 115 | 3.0 | 4.0 | 0.00 | 0.00 | 0.00 | 63 | 1011.5 |
| 20260509004545 | 57 | 0 | 0.0 | 0.0 | 0.00 | 0.00 | 0.00 | 58 | 1011.5 |
| 20260509004028 | 57 | 0 | 0.0 | 0.0 | 0.00 | 0.00 | 0.00 | 59 | 1011.5 |
| 20260509003531 | 57 | 0 | 0.0 | 0.0 | 0.00 | 0.00 | 0.00 | 58 | 1011.5 |
| 20260509003043 | 57 | 0 | 0.0 | 0.0 | 0.00 | 0.00 | 0.00 | 57 | 1011.5 |
| 20260509002530 | 57 | 0 | 0.0 | 0.0 | 0.00 | 0.00 | 0.00 | 58 | 1011.6 |
| 20260509002031 | 57 | 0 | 0.0 | 1.0 | 0.00 | 0.00 | 0.00 | 58 | 1011.6 |
| 20260509001542 | 58 | 0 | 0.0 | 2.0 | 0.00 | 0.00 | 0.00 | 56 | 1011.5 |
| 20260509001030 | 58 | 337 | 1.0 | 2.0 | 0.00 | 0.00 | 0.00 | 56 | 1011.5 |
| 20260509000527 | 59 | 0 | 0.0 | 0.0 | 0.00 | 0.00 | 0.00 | 53 | 1011.4 |
| 20260509000041 | 59 | 0 | 0.0 | 0.0 | 0.00 | 0.00 | 0.00 | 54 | 1011.4 |
| 20260508235527 | 59 | 0 | 0.0 | 1.0 | 0.00 | 0.00 | 0.00 | 52 | 1011.4 |
| 20260508235028 | 60 | 0 | 0.0 | 2.0 | 0.00 | 0.00 | 0.00 | 53 | 1011.5 |
| 20260508234550 | 61 | 0 | 1.0 | 3.0 | 0.00 | 0.00 | 0.00 | 50 | 1011.4 |
| 20260508234028 | 62 | 332 | 1.0 | 3.0 | 0.00 | 0.00 | 0.00 | 49 | 1011.3 |
| 20260508233530 | 62 | 307 | 1.0 | 3.0 | 0.00 | 0.00 | 0.00 | 48 | 1011.4 |
| 20260508233042 | 63 | 303 | 1.0 | 3.0 | 0.00 | 0.00 | 0.00 | 46 | 1011.3 |
| 20260508232530 | 63 | 278 | 1.0 | 3.0 | 0.00 | 0.00 | 0.00 | 46 | 1011.3 |
| 20260508232030 | 63 | 0 | 0.0 | 6.0 | 0.00 | 0.00 | 0.00 | 47 | 1011.2 |
| 20260508231604 | 63 | 288 | 2.0 | 6.0 | 0.00 | 0.00 | 0.00 | 47 | 1011.2 |
| 20260508231032 | 63 | 290 | 3.0 | 7.0 | 0.00 | 0.00 | 0.00 | 46 | 1011.2 |
| 20260508230528 | 63 | 308 | 4.0 | 7.0 | 0.00 | 0.00 | 0.00 | 46 | 1011.2 |
| 20260508230056 | 63 | 292 | 3.0 | 5.0 | 0.00 | 0.00 | 0.00 | 47 | 1011.3 |
| 20260508225530 | 63 | 328 | 2.0 | 5.0 | 0.00 | 0.00 | 0.00 | 46 | 1011.3 |
| 20260508225029 | 63 | 285 | 2.0 | 4.0 | 0.00 | 0.00 | 0.00 | 46 | 1011.2 |
| 20260508224542 | 63 | 274 | 2.0 | 4.0 | 0.00 | 0.00 | 0.00 | 47 | 1011.3 |
| 20260508224029 | 63 | 284 | 2.0 | 4.0 | 0.00 | 0.00 | 0.00 | 48 | 1011.4 |
| 20260508223528 | 62 | 300 | 2.0 | 6.0 | 0.00 | 0.00 | 0.00 | 48 | 1011.3 |
| 20260508223046 | 62 | 293 | 2.0 | 7.0 | 0.00 | 0.00 | 0.00 | 46 | 1011.4 |
| 20260508222529 | 62 | 302 | 4.0 | 8.0 | 0.00 | 0.00 | 0.00 | 45 | 1011.5 |
| 20260508222027 | 63 | 276 | 4.0 | 9.0 | 0.00 | 0.00 | 0.00 | 45 | 1011.4 |
| 20260508221544 | 63 | 285 | 4.0 | 9.0 | 0.00 | 0.00 | 0.00 | 45 | 1011.4 |
| 20260508221028 | 63 | 286 | 4.0 | 7.0 | 0.00 | 0.00 | 0.00 | 46 | 1011.4 |
| 20260508220533 | 63 | 286 | 4.0 | 10.0 | 0.00 | 0.00 | 0.00 | 45 | 1011.3 |
| 20260508220045 | 63 | 277 | 4.0 | 10.0 | 0.00 | 0.00 | 0.00 | 44 | 1011.3 |
| 20260508215534 | 63 | 288 | 2.0 | 9.0 | 0.00 | 0.00 | 0.00 | 45 | 1011.3 |
| 20260508215032 | 63 | 265 | 5.0 | 11.0 | 0.00 | 0.00 | 0.00 | 43 | 1011.3 |
| 20260508214605 | 63 | 276 | 5.0 | 11.0 | 0.00 | 0.00 | 0.00 | 44 | 1011.4 |
| 20260508214034 | 63 | 247 | 4.0 | 15.0 | 0.00 | 0.00 | 0.00 | 43 | 1011.3 |
| 20260508213530 | 63 | 245 | 5.0 | 15.0 | 0.00 | 0.00 | 0.00 | 45 | 1011.4 |
| 20260508213050 | 63 | 277 | 6.0 | 15.0 | 0.00 | 0.00 | 0.00 | 44 | 1011.4 |
| 20260508212533 | 63 | 245 | 6.0 | 12.0 | 0.00 | 0.00 | 0.00 | 43 | 1011.4 |
| 20260508212036 | 63 | 283 | 4.0 | 8.0 | 0.00 | 0.00 | 0.00 | 44 | 1011.2 |
| 20260508211545 | 63 | 295 | 3.0 | 7.0 | 0.00 | 0.00 | 0.00 | 44 | 1011.2 |
| 20260508211032 | 63 | 278 | 3.0 | 9.0 | 0.00 | 0.00 | 0.00 | 44 | 1011.2 |
| 20260508210530 | 63 | 277 | 3.0 | 13.0 | 0.00 | 0.00 | 0.00 | 43 | 1011.3 |
| 20260508210052 | 63 | 282 | 5.0 | 13.0 | 0.00 | 0.00 | 0.00 | 43 | 1011.4 |
| 20260508205532 | 63 | 281 | 5.0 | 13.0 | 0.00 | 0.00 | 0.00 | 41 | 1011.3 |
| 20260508205034 | 63 | 291 | 4.0 | 16.0 | 0.00 | 0.00 | 0.00 | 41 | 1011.2 |
| 20260508204543 | 63 | 265 | 4.0 | 16.0 | 0.00 | 0.00 | 0.00 | 41 | 1011.3 |
| 20260508204030 | 63 | 288 | 6.0 | 11.0 | 0.00 | 0.00 | 0.00 | 41 | 1011.3 |
| 20260508203532 | 63 | 229 | 7.0 | 18.0 | 0.00 | 0.00 | 0.00 | 41 | 1011.4 |
| 20260508203042 | 63 | 243 | 8.0 | 18.0 | 0.00 | 0.00 | 0.00 | 40 | 1011.5 |
| 20260508202532 | 63 | 255 | 5.0 | 12.0 | 0.00 | 0.00 | 0.00 | 39 | 1011.4 |
| 20260508202030 | 63 | 288 | 5.0 | 14.0 | 0.00 | 0.00 | 0.00 | 40 | 1011.4 |
| 20260508201546 | 63 | 268 | 6.0 | 14.0 | 0.00 | 0.00 | 0.00 | 39 | 1011.5 |
| 20260508201030 | 64 | 266 | 7.0 | 14.0 | 0.00 | 0.00 | 0.00 | 39 | 1011.5 |
| 20260508200529 | 64 | 254 | 7.0 | 14.0 | 0.00 | 0.00 | 0.00 | 38 | 1011.4 |
| 20260508200046 | 65 | 266 | 7.0 | 13.0 | 0.00 | 0.00 | 0.00 | 38 | 1011.4 |
| 20260508195535 | 65 | 234 | 3.0 | 9.0 | 0.00 | 0.00 | 0.00 | 42 | 1011.3 |
| 20260508195029 | 64 | 248 | 3.0 | 17.0 | 0.00 | 0.00 | 0.00 | 43 | 1011.5 |
| 20260508194549 | 64 | 252 | 8.0 | 17.0 | 0.00 | 0.00 | 0.00 | 38 | 1011.6 |
| 20260508194033 | 64 | 308 | 8.0 | 14.0 | 0.00 | 0.00 | 0.00 | 38 | 1011.7 |
| 20260508193535 | 64 | 295 | 4.0 | 17.0 | 0.00 | 0.00 | 0.00 | 38 | 1011.7 |
| 20260508193051 | 64 | 264 | 7.0 | 17.0 | 0.00 | 0.00 | 0.00 | 39 | 1011.6 |
| 20260508192532 | 63 | 268 | 6.0 | 19.0 | 0.00 | 0.00 | 0.00 | 39 | 1011.8 |
| 20260508192030 | 63 | 221 | 8.0 | 19.0 | 0.00 | 0.00 | 0.00 | 37 | 1011.7 |
| 20260508191543 | 64 | 286 | 8.0 | 14.0 | 0.00 | 0.00 | 0.00 | 37 | 1011.8 |
| 20260508191032 | 64 | 266 | 5.0 | 11.0 | 0.00 | 0.00 | 0.00 | 39 | 1011.8 |
| 20260508190529 | 64 | 225 | 4.0 | 16.0 | 0.00 | 0.00 | 0.00 | 37 | 1011.8 |
| 20260508190039 | 64 | 253 | 7.0 | 17.0 | 0.00 | 0.00 | 0.00 | 37 | 1011.8 |
| 20260508185531 | 64 | 233 | 9.0 | 17.0 | 0.00 | 0.00 | 0.00 | 36 | 1012.0 |
| 20260508185029 | 64 | 311 | 12.0 | 18.0 | 0.00 | 0.00 | 0.00 | 36 | 1011.8 |
| 20260508184542 | 64 | 276 | 11.0 | 18.0 | 0.00 | 0.00 | 0.00 | 37 | 1011.9 |
| 20260508184028 | 65 | 274 | 10.0 | 16.0 | 0.00 | 0.00 | 0.00 | 36 | 1011.9 |
| 20260508183529 | 65 | 205 | 7.0 | 15.0 | 0.00 | 0.00 | 0.00 | 37 | 1011.8 |
| 20260508183045 | 65 | 212 | 6.0 | 21.0 | 0.00 | 0.00 | 0.00 | 40 | 1011.9 |
| 20260508182529 | 65 | 264 | 9.0 | 21.0 | 0.00 | 0.00 | 0.00 | 36 | 1012.1 |
| 20260508182028 | 65 | 257 | 9.0 | 18.0 | 0.00 | 0.00 | 0.00 | 38 | 1012.0 |
| 20260508181546 | 65 | 242 | 7.0 | 18.0 | 0.00 | 0.00 | 0.00 | 39 | 1012.1 |
| 20260508181029 | 65 | 223 | 10.0 | 25.0 | 0.00 | 0.00 | 0.00 | 39 | 1012.1 |
| 20260508180528 | 64 | 225 | 13.0 | 25.0 | 0.00 | 0.00 | 0.00 | 39 | 1012.1 |
| 20260508180042 | 64 | 256 | 7.0 | 16.0 | 0.00 | 0.00 | 0.00 | 41 | 1012.1 |
| 20260508175528 | 63 | 224 | 8.0 | 23.0 | 0.00 | 0.00 | 0.00 | 39 | 1012.2 |
| 20260508175030 | 63 | 297 | 7.0 | 23.0 | 0.00 | 0.00 | 0.00 | 43 | 1012.4 |
| 20260508174547 | 63 | 255 | 11.0 | 23.0 | 0.00 | 0.00 | 0.00 | 41 | 1012.4 |
| 20260508174029 | 63 | 264 | 6.0 | 13.0 | 0.00 | 0.00 | 0.00 | 44 | 1012.3 |
| 20260508173529 | 63 | 293 | 7.0 | 15.0 | 0.00 | 0.00 | 0.00 | 40 | 1012.5 |
| 20260508173045 | 63 | 231 | 8.0 | 15.0 | 0.00 | 0.00 | 0.00 | 42 | 1012.5 |
| 20260508172529 | 63 | 229 | 8.0 | 17.0 | 0.00 | 0.00 | 0.00 | 47 | 1012.5 |
| 20260508172027 | 62 | 210 | 8.0 | 17.0 | 0.00 | 0.00 | 0.00 | 43 | 1012.7 |
| 20260508171545 | 62 | 224 | 9.0 | 18.0 | 0.00 | 0.00 | 0.00 | 45 | 1012.8 |
| 20260508171031 | 62 | 222 | 7.0 | 18.0 | 0.00 | 0.00 | 0.00 | 46 | 1012.9 |
| 20260508170528 | 62 | 229 | 9.0 | 18.0 | 0.00 | 0.00 | 0.00 | 46 | 1013.1 |
| 20260508170044 | 62 | 307 | 5.0 | 20.0 | 0.00 | 0.00 | 0.00 | 45 | 1013.3 |
| 20260508165530 | 61 | 241 | 7.0 | 20.0 | 0.00 | 0.00 | 0.00 | 42 | 1013.3 |
| 20260508165030 | 61 | 259 | 9.0 | 17.0 | 0.00 | 0.00 | 0.00 | 48 | 1013.4 |
| 20260508164545 | 61 | 247 | 8.0 | 17.0 | 0.00 | 0.00 | 0.00 | 46 | 1013.3 |
| 20260508164030 | 61 | 206 | 9.0 | 18.0 | 0.00 | 0.00 | 0.00 | 45 | 1013.4 |
| 20260508163530 | 60 | 269 | 9.0 | 18.0 | 0.00 | 0.00 | 0.00 | 45 | 1013.5 |
| 20260508163040 | 60 | 283 | 10.0 | 18.0 | 0.00 | 0.00 | 0.00 | 45 | 1013.6 |
| 20260508162527 | 60 | 288 | 9.0 | 16.0 | 0.00 | 0.00 | 0.00 | 46 | 1013.7 |
| 20260508162032 | 60 | 282 | 9.0 | 16.0 | 0.00 | 0.00 | 0.00 | 44 | 1013.7 |
| 20260508161545 | 60 | 304 | 6.0 | 15.0 | 0.00 | 0.00 | 0.00 | 46 | 1013.8 |
| 20260508161030 | 59 | 269 | 9.0 | 15.0 | 0.00 | 0.00 | 0.00 | 45 | 1013.7 |
| 20260508160531 | 59 | 282 | 7.0 | 18.0 | 0.00 | 0.00 | 0.00 | 46 | 1013.9 |
| 20260508160045 | 59 | 170 | 9.0 | 18.0 | 0.00 | 0.00 | 0.00 | 50 | 1014.0 |
| 20260508155549 | 59 | 266 | 7.0 | 17.0 | 0.00 | 0.00 | 0.00 | 46 | 1014.2 |
| 20260508155030 | 60 | 185 | 8.0 | 17.0 | 0.00 | 0.00 | 0.00 | 43 | 1014.0 |
| 20260508154545 | 60 | 256 | 9.0 | 23.0 | 0.00 | 0.00 | 0.00 | 44 | 1014.0 |
| 20260508154030 | 60 | 250 | 6.0 | 23.0 | 0.00 | 0.00 | 0.00 | 44 | 1013.9 |
| 20260508153530 | 60 | 274 | 5.0 | 18.0 | 0.00 | 0.00 | 0.00 | 48 | 1014.2 |
| 20260508153042 | 60 | 252 | 7.0 | 18.0 | 0.00 | 0.00 | 0.00 | 44 | 1013.9 |
| 20260508152530 | 60 | 285 | 11.0 | 18.0 | 0.00 | 0.00 | 0.00 | 42 | 1014.1 |
| 20260508152030 | 60 | 285 | 9.0 | 20.0 | 0.00 | 0.00 | 0.00 | 43 | 1014.1 |
| 20260508151543 | 60 | 286 | 8.0 | 20.0 | 0.00 | 0.00 | 0.00 | 46 | 1014.1 |
| 20260508151030 | 59 | 217 | 7.0 | 17.0 | 0.00 | 0.00 | 0.00 | 47 | 1014.1 |